Time;durP1;ratioP1;P1;durP2;ratioP2;P2;SDS_P1;SDS_P2;PMS_P1;PMS_P2;Temp;Humidity;BMP_temperature;BMP_pressure;BME280_temperature;BME280_humidity;BME280_pressure;Samples;Min_cycle;Max_cycle;Signal;HPM_P1;HPM_P2
2021/03/16 00:01:06;;;;;;;5.43;3.50;;;22.60;50.50;;;;;;5034536;28;20610;-69
2021/03/16 00:03:32;;;;;;;4.70;3.47;;;22.60;50.50;;;;;;5033912;28;20639;-69
2021/03/16 00:05:58;;;;;;;4.43;3.33;;;22.50;50.40;;;;;;5034472;28;20517;-69
2021/03/16 00:08:24;;;;;;;4.20;3.00;;;22.50;50.40;;;;;;5034296;28;20851;-69
2021/03/16 00:10:50;;;;;;;3.90;3.00;;;22.60;50.50;;;;;;5033888;28;20410;-69
2021/03/16 00:13:16;;;;;;;5.80;3.23;;;22.50;51.10;;;;;;5034246;28;20241;-69
2021/03/16 00:15:42;;;;;;;3.83;3.43;;;22.50;50.50;;;;;;5034229;28;20418;-69
2021/03/16 00:18:13;;;;;;;5.37;3.27;;;22.50;50.50;;;;;;5034211;28;20893;-69
2021/03/16 00:20:40;;;;;;;5.50;3.13;;;22.50;50.50;;;;;;5034109;28;20229;-69
2021/03/16 00:23:07;;;;;;;4.70;2.80;;;22.50;50.50;;;;;;5032821;28;20464;-69
2021/03/16 00:25:33;;;;;;;4.63;3.00;;;22.50;50.50;;;;;;5034246;28;20418;-69
2021/03/16 00:27:58;;;;;;;5.43;3.50;;;22.50;50.60;;;;;;5034258;28;20414;-69
2021/03/16 00:30:24;;;;;;;5.50;3.50;;;22.50;50.50;;;;;;5033854;28;20430;-69
2021/03/16 00:32:50;;;;;;;5.40;2.80;;;22.50;50.60;;;;;;5034178;28;20171;-69
2021/03/16 00:35:15;;;;;;;3.57;3.20;;;22.50;50.50;;;;;;5033944;28;20418;-69
2021/03/16 00:37:41;;;;;;;5.47;3.20;;;22.50;50.50;;;;;;5033830;28;20184;-69
2021/03/16 00:40:07;;;;;;;4.40;3.47;;;22.40;50.40;;;;;;5033766;28;20203;-69
2021/03/16 00:42:33;;;;;;;3.67;2.90;;;22.50;50.60;;;;;;5033712;28;20697;-69
2021/03/16 00:44:59;;;;;;;4.60;2.93;;;22.50;50.60;;;;;;5033675;28;20414;-69
2021/03/16 00:47:24;;;;;;;4.73;3.20;;;22.50;50.60;;;;;;5032404;28;20184;-69
2021/03/16 00:49:50;;;;;;;4.60;3.00;;;22.50;50.60;;;;;;5032243;28;20285;-68
2021/03/16 00:52:15;;;;;;;4.50;3.10;;;22.40;50.50;;;;;;5033794;28;20183;-69
2021/03/16 00:54:41;;;;;;;4.10;2.90;;;22.50;50.60;;;;;;5033566;28;20202;-69
2021/03/16 00:57:07;;;;;;;4.00;3.00;;;22.40;50.50;;;;;;5033944;28;20179;-69
2021/03/16 00:59:32;;;;;;;3.03;2.50;;;22.40;50.50;;;;;;5032170;28;20203;-69
2021/03/16 01:01:58;;;;;;;5.03;3.40;;;22.50;50.60;;;;;;5033669;28;20249;-69
2021/03/16 01:04:23;;;;;;;3.90;2.60;;;22.40;50.50;;;;;;5033405;28;20179;-68
2021/03/16 01:06:49;;;;;;;5.43;3.57;;;22.50;50.60;;;;;;5032108;28;20180;-68
2021/03/16 01:09:14;;;;;;;6.23;3.77;;;22.40;50.50;;;;;;5033206;28;20268;-69
2021/03/16 01:11:40;;;;;;;3.80;2.70;;;22.40;50.50;;;;;;5033413;28;20175;-68
2021/03/16 01:14:07;;;;;;;4.00;2.83;;;22.40;50.50;;;;;;5033492;28;20172;-69
2021/03/16 01:16:33;;;;;;;4.10;3.20;;;22.40;50.50;;;;;;5031100;28;20603;-69
2021/03/16 01:18:59;;;;;;;4.43;2.87;;;22.40;50.50;;;;;;5033140;28;20480;-69
2021/03/16 01:21:25;;;;;;;2.90;2.60;;;22.40;50.60;;;;;;5033214;28;20844;-69
2021/03/16 01:23:50;;;;;;;3.87;3.20;;;22.40;51.10;;;;;;5031852;28;20555;-69
2021/03/16 01:26:16;;;;;;;4.70;2.83;;;22.40;50.50;;;;;;5033136;28;20175;-68
2021/03/16 01:28:41;;;;;;;3.20;2.70;;;22.40;50.60;;;;;;5032931;28;20211;-69
2021/03/16 01:31:07;;;;;;;5.17;2.80;;;22.40;50.60;;;;;;5033083;28;20203;-69
2021/03/16 01:33:33;;;;;;;5.00;3.00;;;22.40;50.60;;;;;;5033049;28;20233;-69
2021/03/16 01:35:58;;;;;;;4.67;2.70;;;22.40;50.60;;;;;;5032964;28;20610;-69
2021/03/16 01:38:24;;;;;;;4.07;3.00;;;22.40;50.60;;;;;;5033202;28;20176;-69
2021/03/16 01:40:50;;;;;;;3.00;2.43;;;22.30;50.50;;;;;;5031714;28;20631;-69
2021/03/16 01:43:19;;;;;;;4.90;2.70;;;22.30;50.50;;;;;;5033038;28;20175;-69
2021/03/16 01:45:46;;;;;;;3.27;2.33;;;22.40;50.60;;;;;;5032901;28;20406;-69
2021/03/16 01:48:14;;;;;;;4.30;2.90;;;22.30;50.50;;;;;;5031509;28;20431;-69
2021/03/16 01:50:41;;;;;;;4.33;2.47;;;22.30;50.50;;;;;;5032912;28;20463;-69
2021/03/16 01:53:07;;;;;;;3.03;2.60;;;22.30;50.50;;;;;;5033139;28;20406;-69
2021/03/16 01:55:35;;;;;;;3.53;2.30;;;22.30;50.50;;;;;;5032815;28;20753;-69
2021/03/16 01:58:00;;;;;;;3.10;2.50;;;22.30;50.50;;;;;;5032811;28;20414;-69
2021/03/16 02:00:34;;;;;;;3.17;2.40;;;22.30;50.50;;;;;;5032722;28;20434;-69
2021/03/16 02:02:59;;;;;;;3.63;2.70;;;22.30;50.50;;;;;;5032866;28;20616;-69
2021/03/16 02:05:25;;;;;;;3.40;2.53;;;22.30;50.50;;;;;;5032735;28;20410;-69
2021/03/16 02:07:59;;;;;;;3.83;2.33;;;22.30;50.50;;;;;;5031475;28;20615;-68
2021/03/16 02:10:30;;;;;;;3.53;2.80;;;22.30;50.50;;;;;;5031414;28;20204;-69
2021/03/16 02:13:04;;;;;;;4.17;2.40;;;22.30;50.60;;;;;;5031391;28;20901;-69
2021/03/16 02:15:34;;;;;;;7.13;2.23;;;22.30;50.60;;;;;;5032685;28;20382;-69
2021/03/16 02:18:07;;;;;;;4.70;2.40;;;22.30;50.60;;;;;;5032637;28;20403;-69
2021/03/16 02:20:51;;;;;;;3.83;2.80;;;22.30;50.60;;;;;;5031339;28;20429;-69
2021/03/16 02:23:21;;;;;;;5.70;2.80;;;22.20;50.50;;;;;;5032916;28;20777;-69
2021/03/16 02:26:13;;;;;;;3.67;2.50;;;22.30;50.60;;;;;;5031334;28;20395;-69
2021/03/16 02:29:01;;;;;;;3.60;2.40;;;22.30;50.60;;;;;;5036164;28;20462;-69
2021/03/16 02:31:28;;;;;;;3.73;3.07;;;22.20;50.60;;;;;;5035498;28;20898;-69
2021/03/16 02:33:55;;;;;;;4.40;3.67;;;22.20;50.60;;;;;;5036696;28;20809;-69
2021/03/16 02:36:23;;;;;;;4.10;2.20;;;22.20;50.60;;;;;;5036164;28;20825;-69
2021/03/16 02:38:51;;;;;;;3.57;2.50;;;22.20;50.60;;;;;;5034758;28;20434;-68
2021/03/16 02:41:18;;;;;;;4.07;2.33;;;22.20;50.60;;;;;;5034760;28;20411;-69
2021/03/16 02:43:45;;;;;;;2.83;2.10;;;22.20;50.60;;;;;;5035993;28;20402;-68
2021/03/16 02:46:12;;;;;;;3.37;2.30;;;22.20;50.60;;;;;;5034668;28;20465;-69
2021/03/16 02:48:38;;;;;;;2.50;2.20;;;22.20;50.60;;;;;;5035782;28;20487;-69
2021/03/16 02:51:05;;;;;;;3.23;2.40;;;22.20;50.60;;;;;;5035868;28;20417;-69
2021/03/16 02:53:33;;;;;;;8.20;3.37;;;22.20;50.60;;;;;;5035795;28;20415;-69
2021/03/16 02:55:59;;;;;;;3.00;2.40;;;22.20;50.60;;;;;;5035728;28;20778;-69
2021/03/16 02:58:28;;;;;;;3.03;2.13;;;22.20;50.60;;;;;;5035784;28;20406;-69
2021/03/16 03:00:54;;;;;;;4.03;2.30;;;22.20;50.60;;;;;;5035621;28;20417;-69
2021/03/16 03:03:23;;;;;;;3.50;3.20;;;22.20;50.60;;;;;;5035589;28;20410;-69
2021/03/16 03:05:51;;;;;;;4.40;2.70;;;22.20;50.60;;;;;;5035565;28;20406;-69
2021/03/16 03:08:19;;;;;;;3.23;2.20;;;22.20;50.60;;;;;;5035632;28;20531;-69
2021/03/16 03:10:45;;;;;;;3.10;2.77;;;22.10;50.60;;;;;;5035738;28;20406;-69
2021/03/16 03:13:11;;;;;;;2.90;2.10;;;22.10;50.60;;;;;;5035355;28;20413;-69
2021/03/16 03:15:36;;;;;;;3.10;2.30;;;22.20;50.70;;;;;;5035506;28;20198;-69
2021/03/16 03:18:02;;;;;;;2.33;1.97;;;22.20;50.70;;;;;;5035677;28;20164;-69
2021/03/16 03:20:28;;;;;;;3.33;2.37;;;22.20;50.70;;;;;;5034008;28;20192;-69
2021/03/16 03:23:15;;;;;;;2.43;2.20;;;22.10;50.60;;;;;;5034051;28;20179;-69
2021/03/16 03:25:43;;;;;;;5.00;2.30;;;22.20;50.70;;;;;;5035240;28;20469;-69
2021/03/16 03:28:25;;;;;;;3.27;2.33;;;22.10;50.60;;;;;;5035388;28;20449;-69
2021/03/16 03:30:51;;;;;;;3.17;2.37;;;22.10;50.60;;;;;;5035166;28;20440;-69
2021/03/16 03:33:20;;;;;;;3.50;2.70;;;22.10;50.60;;;;;;5035395;28;20411;-69
2021/03/16 03:35:46;;;;;;;2.70;2.00;;;22.10;50.70;;;;;;5034956;28;20418;-69
2021/03/16 03:38:12;;;;;;;4.27;2.50;;;22.10;50.70;;;;;;5034463;28;20905;-69
2021/03/16 03:40:38;;;;;;;3.67;2.57;;;22.10;50.70;;;;;;5035006;28;20190;-69
2021/03/16 03:43:07;;;;;;;3.40;2.17;;;22.10;50.70;;;;;;5035350;28;20418;-69
2021/03/16 03:45:35;;;;;;;2.90;2.10;;;22.10;50.70;;;;;;5034735;28;20413;-69
2021/03/16 03:48:03;;;;;;;3.77;2.53;;;22.10;50.70;;;;;;5033509;28;20411;-69
2021/03/16 03:50:30;;;;;;;3.23;2.20;;;22.10;50.70;;;;;;5033376;28;20458;-69
2021/03/16 03:52:58;;;;;;;3.83;2.20;;;22.10;50.70;;;;;;5034743;28;20414;-69
2021/03/16 03:55:25;;;;;;;3.47;2.27;;;22.10;50.70;;;;;;5034707;28;20415;-69
2021/03/16 03:57:52;;;;;;;3.70;2.43;;;22.10;50.60;;;;;;5033434;28;20906;-69
2021/03/16 04:00:19;;;;;;;3.73;2.10;;;22.10;50.70;;;;;;5034534;28;20807;-69
2021/03/16 04:02:46;;;;;;;2.90;2.03;;;22.00;50.60;;;;;;5034547;28;20826;-69
2021/03/16 04:05:13;;;;;;;2.70;2.20;;;22.10;50.70;;;;;;5034478;28;20496;-69
2021/03/16 04:07:39;;;;;;;2.93;2.00;;;22.10;50.70;;;;;;5033175;28;20422;-69
2021/03/16 04:10:07;;;;;;;2.87;2.17;;;22.10;50.70;;;;;;5033064;28;20498;-69
2021/03/16 04:12:34;;;;;;;2.60;2.20;;;22.00;50.60;;;;;;5034441;28;20410;-69
2021/03/16 04:15:02;;;;;;;2.63;1.80;;;22.00;50.60;;;;;;5033033;28;20418;-69
2021/03/16 04:17:27;;;;;;;2.83;2.50;;;22.00;50.60;;;;;;5033282;28;20960;-69
2021/03/16 04:19:56;;;;;;;4.53;2.10;;;22.10;50.70;;;;;;5034131;28;20431;-69
2021/03/16 04:22:23;;;;;;;2.80;1.90;;;22.00;50.60;;;;;;5034146;28;20175;-69
2021/03/16 04:24:50;;;;;;;2.57;1.63;;;22.00;50.60;;;;;;5034119;28;20889;-69
2021/03/16 04:27:16;;;;;;;3.03;2.13;;;22.00;50.60;;;;;;5034022;28;20472;-69
2021/03/16 04:29:41;;;;;;;3.00;2.40;;;22.00;50.60;;;;;;5033811;28;20862;-69
2021/03/16 04:32:07;;;;;;;2.57;2.30;;;22.00;50.60;;;;;;5034028;28;20183;-69
2021/03/16 04:34:33;;;;;;;2.80;2.23;;;22.00;50.60;;;;;;5033919;28;20699;-69
2021/03/16 04:36:58;;;;;;;2.17;1.90;;;22.00;50.60;;;;;;5033881;28;20508;-69
2021/03/16 04:39:24;;;;;;;2.73;2.10;;;22.00;50.60;;;;;;5033946;28;20200;-69
2021/03/16 04:41:50;;;;;;;2.60;2.17;;;22.00;50.60;;;;;;5034352;28;20266;-69
2021/03/16 04:44:15;;;;;;;2.70;1.90;;;22.00;50.60;;;;;;5033981;28;20226;-69
2021/03/16 04:46:41;;;;;;;3.00;1.93;;;22.00;50.60;;;;;;5033738;28;20194;-69
2021/03/16 04:49:07;;;;;;;2.37;2.07;;;22.00;50.60;;;;;;5033653;28;20557;-69
2021/03/16 04:51:32;;;;;;;3.13;2.20;;;22.00;50.70;;;;;;5033597;28;20259;-69
2021/03/16 04:53:58;;;;;;;4.63;2.00;;;22.00;50.70;;;;;;5033619;28;20183;-69
2021/03/16 04:56:23;;;;;;;2.33;2.13;;;21.90;50.60;;;;;;5033567;28;20258;-69
2021/03/16 04:58:49;;;;;;;2.30;1.60;;;21.90;50.60;;;;;;5032188;28;20701;-69
2021/03/16 05:01:16;;;;;;;2.63;2.03;;;21.90;50.60;;;;;;5033464;28;20175;-68
2021/03/16 05:03:42;;;;;;;3.30;2.30;;;21.90;50.60;;;;;;5033472;28;20180;-69
2021/03/16 05:06:08;;;;;;;2.00;1.70;;;21.90;50.70;;;;;;5033679;28;20425;-69
2021/03/16 05:08:33;;;;;;;2.60;1.73;;;21.90;50.70;;;;;;5033261;28;20207;-69
2021/03/16 05:10:59;;;;;;;3.10;2.27;;;21.90;50.70;;;;;;5033391;28;20176;-69
2021/03/16 05:13:24;;;;;;;2.83;2.00;;;21.90;50.70;;;;;;5033483;28;20179;-69
2021/03/16 05:15:50;;;;;;;3.27;2.03;;;21.80;50.70;;;;;;5033347;28;20178;-69
2021/03/16 05:18:15;;;;;;;3.10;2.10;;;21.90;50.80;;;;;;5033144;28;20255;-68
2021/03/16 05:20:41;;;;;;;3.90;1.90;;;21.90;50.80;;;;;;5032109;28;20172;-69
2021/03/16 05:23:07;;;;;;;1.70;1.43;;;21.90;50.70;;;;;;5033153;28;20176;-69
2021/03/16 05:25:32;;;;;;;2.80;1.80;;;21.80;50.70;;;;;;5033148;28;20179;-69
2021/03/16 05:27:59;;;;;;;2.40;1.87;;;21.80;50.70;;;;;;5033118;28;20203;-69
2021/03/16 05:30:25;;;;;;;2.60;1.87;;;21.80;50.70;;;;;;5032922;28;20207;-68
2021/03/16 05:32:57;;;;;;;2.53;2.00;;;21.80;50.70;;;;;;5033081;28;20410;-69
2021/03/16 05:35:24;;;;;;;2.67;1.80;;;21.80;50.70;;;;;;5033005;28;20414;-69
2021/03/16 05:37:50;;;;;;;4.43;2.00;;;21.80;50.70;;;;;;5032968;28;20483;-69
2021/03/16 05:40:16;;;;;;;2.50;1.67;;;21.80;50.60;;;;;;5032939;28;20838;-69
2021/03/16 05:42:41;;;;;;;2.30;1.80;;;21.80;50.60;;;;;;5033268;28;20171;-69
2021/03/16 05:45:08;;;;;;;3.50;1.80;;;21.80;50.60;;;;;;5033276;28;20219;-68
2021/03/16 05:47:35;;;;;;;3.83;2.00;;;21.80;50.60;;;;;;5031964;28;20317;-68
2021/03/16 05:50:02;;;;;;;2.33;1.87;;;21.90;50.60;;;;;;5032802;28;20835;-69
2021/03/16 05:52:29;;;;;;;2.23;1.83;;;21.80;50.50;;;;;;5033194;28;20410;-68
2021/03/16 05:54:55;;;;;;;2.80;1.63;;;21.90;50.50;;;;;;5033131;28;20403;-69
2021/03/16 05:57:21;;;;;;;3.03;1.97;;;21.90;50.50;;;;;;5033182;28;20748;-69
2021/03/16 05:59:48;;;;;;;1.87;1.43;;;21.90;50.40;;;;;;5033001;28;20434;-67
2021/03/16 06:02:15;;;;;;;2.03;1.60;;;21.90;50.40;;;;;;5034590;28;20414;-69
2021/03/16 06:04:42;;;;;;;3.00;2.07;;;22.00;50.40;;;;;;5036725;28;20461;-69
2021/03/16 06:07:08;;;;;;;2.33;1.67;;;22.00;50.40;;;;;;5036681;28;20410;-69
2021/03/16 06:09:34;;;;;;;1.90;1.50;;;22.00;50.30;;;;;;5036774;28;20472;-68
2021/03/16 06:11:59;;;;;;;2.33;1.73;;;22.00;50.30;;;;;;5036498;28;20172;-70
2021/03/16 06:14:30;;;;;;;1.50;1.20;;;22.00;50.20;;;;;;5036520;28;20418;-70
2021/03/16 06:16:56;;;;;;;3.73;1.60;;;22.00;50.20;;;;;;5036465;28;20647;-70
2021/03/16 06:19:33;;;;;;;2.57;2.23;;;22.00;50.20;;;;;;5036257;28;20491;-70
2021/03/16 06:22:04;;;;;;;3.83;1.73;;;22.00;50.10;;;;;;5036346;28;20406;-70
2021/03/16 06:24:30;;;;;;;1.70;1.50;;;22.10;50.80;;;;;;5036555;28;20405;-69
2021/03/16 06:26:56;;;;;;;3.13;2.10;;;22.00;50.10;;;;;;5036405;28;20421;-69
2021/03/16 06:29:22;;;;;;;2.50;1.70;;;22.00;50.10;;;;;;5036186;28;20454;-68
2021/03/16 06:31:48;;;;;;;1.97;1.50;;;22.10;50.20;;;;;;5034881;28;20449;-69
2021/03/16 06:34:27;;;;;;;2.87;1.70;;;22.10;50.80;;;;;;5035124;28;20846;-69
2021/03/16 06:36:59;;;;;;;2.03;1.40;;;22.10;50.20;;;;;;5036067;28;20457;-67
2021/03/16 06:39:25;;;;;;;2.03;1.30;;;22.10;50.20;;;;;;5034724;28;20458;-70
2021/03/16 06:41:51;;;;;;;2.30;1.77;;;22.10;50.20;;;;;;5035063;28;20419;-70
2021/03/16 06:44:18;;;;;;;1.90;1.60;;;22.10;50.20;;;;;;5035864;28;20448;-69
2021/03/16 06:46:52;;;;;;;2.10;1.67;;;22.10;50.20;;;;;;5035795;28;20429;-69
2021/03/16 06:49:22;;;;;;;2.00;1.70;;;22.10;50.20;;;;;;5035859;28;20471;-69
2021/03/16 06:51:49;;;;;;;3.00;1.90;;;22.10;50.20;;;;;;5034674;28;20417;-69
2021/03/16 06:54:22;;;;;;;2.60;1.53;;;22.10;50.20;;;;;;5034490;28;20505;-69
2021/03/16 06:57:00;;;;;;;2.67;1.20;;;22.10;50.10;;;;;;5035742;28;20395;-69
2021/03/16 06:59:27;;;;;;;2.47;1.80;;;22.10;50.20;;;;;;5035664;28;20449;-69
2021/03/16 07:01:53;;;;;;;2.57;1.67;;;22.10;50.20;;;;;;5035722;28;20556;-69
2021/03/16 07:04:26;;;;;;;2.30;1.50;;;22.10;50.20;;;;;;5035671;28;20836;-69
2021/03/16 07:06:52;;;;;;;4.00;1.90;;;22.10;50.20;;;;;;5035560;28;20395;-68
2021/03/16 07:09:19;;;;;;;2.40;1.57;;;22.20;50.30;;;;;;5035421;28;20980;-69
2021/03/16 07:11:49;;;;;;;3.10;1.40;;;22.10;50.20;;;;;;5035347;28;20199;-69
2021/03/16 07:14:17;;;;;;;2.47;1.50;;;22.20;50.30;;;;;;5035335;28;20414;-68
2021/03/16 07:16:43;;;;;;;2.50;1.90;;;22.10;50.70;;;;;;5035368;28;20923;-69
2021/03/16 07:19:09;;;;;;;2.07;1.53;;;22.20;50.20;;;;;;5035156;28;20472;-68
2021/03/16 07:21:46;;;;;;;2.17;1.33;;;22.20;50.20;;;;;;5035563;28;20410;-69
2021/03/16 07:24:15;;;;;;;2.40;1.70;;;22.30;50.30;;;;;;5035289;28;20382;-69
2021/03/16 07:26:40;;;;;;;4.70;2.00;;;22.20;50.20;;;;;;5035167;28;20472;-69
2021/03/16 07:29:08;;;;;;;3.50;1.97;;;22.30;50.30;;;;;;5033741;28;20469;-69
2021/03/16 07:31:39;;;;;;;1.73;1.60;;;22.30;50.30;;;;;;5035570;28;20187;-69
2021/03/16 07:34:06;;;;;;;2.50;1.30;;;22.30;50.30;;;;;;5035110;28;20391;-68
2021/03/16 07:36:34;;;;;;;2.47;1.70;;;22.30;50.80;;;;;;5034987;28;20434;-68
2021/03/16 07:39:01;;;;;;;2.77;1.60;;;22.40;50.40;;;;;;5033635;28;20431;-68
2021/03/16 07:41:28;;;;;;;2.10;1.53;;;22.30;50.30;;;;;;5034975;28;20442;-68
2021/03/16 07:44:11;;;;;;;2.27;1.43;;;22.40;50.30;;;;;;5034958;28;21027;-68
2021/03/16 07:46:56;;;;;;;2.20;1.80;;;22.40;50.20;;;;;;5034909;28;20407;-68
2021/03/16 07:49:36;;;;;;;3.47;1.97;;;22.40;50.70;;;;;;5035868;28;20493;-68
2021/03/16 07:52:14;;;;;;;1.80;1.20;;;22.40;50.10;;;;;;5034563;28;20446;-69
2021/03/16 07:54:41;;;;;;;2.70;1.73;;;22.50;50.20;;;;;;5036101;28;20782;-69
2021/03/16 07:57:07;;;;;;;1.77;1.30;;;22.40;50.10;;;;;;5034629;28;20415;-67
2021/03/16 07:59:37;;;;;;;1.80;1.10;;;22.40;50.10;;;;;;5034053;28;20435;-69
2021/03/16 08:02:03;;;;;;;3.63;1.60;;;22.40;50.00;;;;;;5034417;28;20422;-68
2021/03/16 08:04:33;;;;;;;1.60;1.20;;;22.50;50.10;;;;;;5035139;28;20415;-67
2021/03/16 08:07:03;;;;;;;2.50;1.60;;;22.50;50.10;;;;;;5035187;28;20406;-69
2021/03/16 08:09:29;;;;;;;1.80;1.40;;;22.50;50.10;;;;;;5035097;28;20485;-66
2021/03/16 08:11:55;;;;;;;2.47;1.37;;;22.50;50.10;;;;;;5033483;28;20971;-69
2021/03/16 08:14:26;;;;;;;2.50;1.73;;;22.50;50.00;;;;;;5034372;28;20176;-66
2021/03/16 08:16:52;;;;;;;3.00;1.50;;;22.60;50.10;;;;;;5034292;28;20631;-67
2021/03/16 08:19:20;;;;;;;1.90;1.57;;;22.60;50.10;;;;;;5034032;28;20430;-67
2021/03/16 08:21:54;;;;;;;1.90;1.60;;;22.60;50.10;;;;;;5034202;28;20414;-67
2021/03/16 08:24:20;;;;;;;2.43;1.53;;;22.60;50.00;;;;;;5034128;28;20414;-69
2021/03/16 08:26:52;;;;;;;2.60;1.57;;;22.60;50.00;;;;;;5033971;28;20885;-69
2021/03/16 08:29:27;;;;;;;2.60;1.60;;;22.60;50.00;;;;;;5033875;28;20285;-69
2021/03/16 08:31:55;;;;;;;2.50;1.60;;;22.60;50.00;;;;;;5034243;28;20406;-69
2021/03/16 08:34:22;;;;;;;1.80;1.30;;;22.70;50.60;;;;;;5033849;28;20749;-68
2021/03/16 08:36:48;;;;;;;2.33;1.10;;;22.70;50.00;;;;;;5033744;28;20481;-68
2021/03/16 08:39:26;;;;;;;1.83;1.17;;;22.70;50.00;;;;;;5033767;28;20426;-68
2021/03/16 08:41:56;;;;;;;2.17;1.27;;;22.70;50.00;;;;;;5034021;28;20203;-69
2021/03/16 08:44:23;;;;;;;1.70;1.23;;;22.70;50.00;;;;;;5034000;28;20395;-68
2021/03/16 08:46:48;;;;;;;1.33;0.90;;;22.70;50.00;;;;;;5033676;28;20442;-69
2021/03/16 08:49:19;;;;;;;3.20;1.47;;;22.70;50.00;;;;;;5033427;28;20494;-67
2021/03/16 08:51:44;;;;;;;2.43;1.30;;;22.70;50.10;;;;;;5033651;28;20184;-69
2021/03/16 08:54:10;;;;;;;2.33;1.37;;;22.70;50.10;;;;;;5032364;28;20422;-70
2021/03/16 08:56:36;;;;;;;1.33;1.10;;;22.70;50.10;;;;;;5033541;28;20218;-70
2021/03/16 08:59:08;;;;;;;2.30;1.37;;;22.70;50.00;;;;;;5033400;28;20187;-70
2021/03/16 09:01:34;;;;;;;3.13;1.57;;;22.70;50.00;;;;;;5033439;28;20183;-70
2021/03/16 09:04:10;;;;;;;2.40;1.37;;;22.70;50.00;;;;;;5033388;28;20786;-68
2021/03/16 09:06:36;;;;;;;1.60;1.23;;;22.70;50.00;;;;;;5032056;28;20418;-68
2021/03/16 09:09:02;;;;;;;2.20;1.20;;;22.70;50.10;;;;;;5033104;28;20549;-68
2021/03/16 09:11:33;;;;;;;1.87;1.30;;;22.70;50.10;;;;;;5033555;28;20225;-68
2021/03/16 09:14:17;;;;;;;1.60;1.10;;;22.70;50.00;;;;;;5031941;28;20468;-70
2021/03/16 09:16:45;;;;;;;1.67;1.30;;;22.70;50.00;;;;;;5033501;28;20391;-68
2021/03/16 09:19:15;;;;;;;2.10;1.17;;;22.70;50.10;;;;;;5033040;28;20430;-69
2021/03/16 09:21:52;;;;;;;2.07;1.20;;;22.70;50.10;;;;;;5033313;28;20468;-70
2021/03/16 09:24:20;;;;;;;1.73;1.10;;;22.70;50.10;;;;;;5033080;28;20761;-70
2021/03/16 09:26:53;;;;;;;1.80;1.20;;;22.70;50.10;;;;;;5033128;28;20414;-70
2021/03/16 09:29:20;;;;;;;1.93;1.40;;;22.70;50.10;;;;;;5032984;28;20468;-70
2021/03/16 09:31:46;;;;;;;2.10;1.23;;;22.70;50.10;;;;;;5033020;28;20422;-69
2021/03/16 09:34:13;;;;;;;1.80;1.10;;;22.70;50.10;;;;;;5032989;28;20394;-69
2021/03/16 09:36:39;;;;;;;2.67;1.20;;;22.70;50.10;;;;;;5032055;28;20186;-70
2021/03/16 09:39:04;;;;;;;2.50;1.40;;;22.70;50.10;;;;;;5032979;28;20430;-70
2021/03/16 09:41:30;;;;;;;1.90;1.50;;;22.70;50.10;;;;;;5032833;28;20536;-70
2021/03/16 09:43:56;;;;;;;1.87;1.17;;;22.70;50.10;;;;;;5033077;28;20171;-70
2021/03/16 09:46:21;;;;;;;1.70;1.20;;;22.70;50.10;;;;;;5032809;28;20176;-70
2021/03/16 09:48:50;;;;;;;1.80;1.23;;;22.70;50.20;;;;;;5032704;28;20204;-70
2021/03/16 09:51:19;;;;;;;1.70;1.30;;;22.70;50.20;;;;;;5033103;28;20247;-69
2021/03/16 09:53:46;;;;;;;1.63;1.17;;;22.70;50.20;;;;;;5032812;28;20472;-69
2021/03/16 09:56:12;;;;;;;1.80;1.13;;;22.70;50.10;;;;;;5032778;28;20410;-68
2021/03/16 09:58:38;;;;;;;2.00;1.40;;;22.70;50.10;;;;;;5032942;28;20488;-70
2021/03/16 10:01:05;;;;;;;1.67;1.17;;;22.70;50.10;;;;;;5033267;28;20889;-70
2021/03/16 10:03:30;;;;;;;2.80;1.30;;;22.70;50.10;;;;;;5032738;28;20198;-70
2021/03/16 10:06:07;;;;;;;2.40;1.43;;;22.70;50.10;;;;;;5032677;28;20414;-69
2021/03/16 10:08:33;;;;;;;2.70;1.70;;;22.70;50.10;;;;;;5032882;28;20192;-70
2021/03/16 10:10:59;;;;;;;1.70;1.10;;;22.70;50.10;;;;;;5032678;28;20489;-70
2021/03/16 10:13:36;;;;;;;2.40;1.70;;;22.80;50.70;;;;;;5032687;28;20944;-69
2021/03/16 10:16:10;;;;;;;1.80;1.37;;;22.80;50.20;;;;;;5032958;28;20860;-70
2021/03/16 10:18:41;;;;;;;2.03;1.30;;;22.80;50.20;;;;;;5032618;28;20797;-69
2021/03/16 10:21:07;;;;;;;1.70;1.10;;;22.80;50.30;;;;;;5032591;28;20395;-69
2021/03/16 10:23:32;;;;;;;2.07;1.30;;;22.80;50.20;;;;;;5032547;28;20399;-69
2021/03/16 10:26:01;;;;;;;1.30;1.00;;;22.80;50.10;;;;;;5031388;28;20417;-68
2021/03/16 10:28:37;;;;;;;1.90;1.00;;;22.80;50.10;;;;;;5032232;28;20230;-68
2021/03/16 10:31:14;;;;;;;1.40;1.20;;;22.80;50.10;;;;;;5031195;28;20410;-69
2021/03/16 10:33:40;;;;;;;2.47;1.37;;;22.80;50.10;;;;;;5032482;28;20507;-69
2021/03/16 10:36:07;;;;;;;1.53;1.17;;;22.80;50.10;;;;;;5032363;28;20500;-69
2021/03/16 10:38:33;;;;;;;1.53;1.20;;;22.80;50.10;;;;;;5032705;28;20282;-68
2021/03/16 10:40:58;;;;;;;1.80;1.30;;;22.80;50.10;;;;;;5031132;28;20903;-69
2021/03/16 10:43:24;;;;;;;1.53;1.03;;;22.80;50.10;;;;;;5031193;28;20267;-69
2021/03/16 10:45:56;;;;;;;1.30;1.00;;;22.80;50.00;;;;;;5032386;28;20172;-69
2021/03/16 10:48:22;;;;;;;2.00;1.20;;;22.90;50.10;;;;;;5034185;28;20195;-69
2021/03/16 10:50:48;;;;;;;1.33;1.20;;;22.90;50.10;;;;;;5035906;28;20406;-69
2021/03/16 10:53:15;;;;;;;1.87;1.20;;;22.90;50.10;;;;;;5035816;28;20414;-69
2021/03/16 10:55:41;;;;;;;1.90;1.27;;;22.90;50.10;;;;;;5035702;28;20498;-69
2021/03/16 10:58:07;;;;;;;2.00;1.37;;;22.90;50.10;;;;;;5036222;28;20848;-68
2021/03/16 11:00:33;;;;;;;2.07;1.20;;;22.90;50.10;;;;;;5034482;28;20484;-68
2021/03/16 11:02:58;;;;;;;2.37;1.17;;;22.90;50.10;;;;;;5035719;28;20203;-68
2021/03/16 11:05:24;;;;;;;1.47;0.90;;;22.90;50.10;;;;;;5035580;28;20175;-67
2021/03/16 11:07:49;;;;;;;1.90;1.20;;;22.90;50.10;;;;;;5034295;28;20273;-68
2021/03/16 11:10:15;;;;;;;1.60;1.23;;;22.90;50.10;;;;;;5034114;28;20231;-69
2021/03/16 11:12:41;;;;;;;1.40;1.00;;;22.90;50.10;;;;;;5035448;28;20171;-68
2021/03/16 11:15:08;;;;;;;2.13;1.10;;;22.90;50.10;;;;;;5035417;28;20606;-69
2021/03/16 11:17:33;;;;;;;1.40;1.10;;;22.90;50.10;;;;;;5035658;28;20497;-67
2021/03/16 11:19:59;;;;;;;1.80;1.30;;;22.90;50.10;;;;;;5033946;28;20529;-68
2021/03/16 11:22:24;;;;;;;1.60;1.00;;;22.90;50.10;;;;;;5035347;28;20179;-68
2021/03/16 11:24:50;;;;;;;2.27;1.40;;;22.90;50.00;;;;;;5035233;28;20206;-68
2021/03/16 11:27:16;;;;;;;1.47;1.00;;;22.90;50.10;;;;;;5035153;28;20171;-69
2021/03/16 11:29:41;;;;;;;2.27;1.50;;;22.90;50.10;;;;;;5035084;28;20679;-68
2021/03/16 11:32:07;;;;;;;1.30;1.00;;;22.90;50.10;;;;;;5035056;28;20639;-67
2021/03/16 11:34:34;;;;;;;2.60;1.20;;;22.90;50.10;;;;;;5035074;28;20168;-69
2021/03/16 11:37:00;;;;;;;1.43;1.10;;;22.90;50.10;;;;;;5034930;28;20701;-68
2021/03/16 11:39:27;;;;;;;1.90;1.10;;;22.90;50.10;;;;;;5034871;28;20518;-69
2021/03/16 11:41:52;;;;;;;1.53;1.03;;;22.90;50.10;;;;;;5034944;28;20325;-69
2021/03/16 11:44:18;;;;;;;1.57;1.23;;;22.90;50.00;;;;;;5034873;28;20826;-68
2021/03/16 11:46:44;;;;;;;1.33;0.90;;;22.90;50.10;;;;;;5034876;28;20646;-68
2021/03/16 11:49:09;;;;;;;1.33;1.00;;;22.90;50.00;;;;;;5034701;28;20563;-69
2021/03/16 11:51:36;;;;;;;1.53;1.00;;;22.90;50.00;;;;;;5035152;28;20649;-68
2021/03/16 11:54:01;;;;;;;1.67;0.90;;;22.90;50.00;;;;;;5034657;28;20215;-68
2021/03/16 11:56:27;;;;;;;1.30;0.90;;;22.90;50.00;;;;;;5034668;28;20422;-67
2021/03/16 11:58:52;;;;;;;1.60;1.30;;;22.90;50.00;;;;;;5033989;28;20196;-68
2021/03/16 12:01:18;;;;;;;1.83;0.90;;;22.90;50.00;;;;;;5034310;28;20187;-70
2021/03/16 12:03:44;;;;;;;1.37;1.20;;;22.90;50.00;;;;;;5033170;28;20267;-69
2021/03/16 12:06:10;;;;;;;2.13;1.00;;;22.90;50.00;;;;;;5033163;28;20211;-69
2021/03/16 12:08:37;;;;;;;1.47;1.20;;;22.90;50.00;;;;;;5034385;28;20758;-70
2021/03/16 12:11:03;;;;;;;3.07;1.47;;;22.90;50.00;;;;;;5034504;28;20403;-70
2021/03/16 12:13:29;;;;;;;1.50;1.10;;;22.90;50.00;;;;;;5034278;28;20426;-70
2021/03/16 12:15:55;;;;;;;2.07;1.40;;;22.90;50.00;;;;;;5034420;28;20406;-70
2021/03/16 12:18:20;;;;;;;3.37;1.50;;;22.80;49.90;;;;;;5034228;28;20176;-70
2021/03/16 12:20:46;;;;;;;2.30;1.40;;;22.80;49.90;;;;;;5034471;28;20179;-70
2021/03/16 12:23:12;;;;;;;2.97;1.10;;;22.80;50.00;;;;;;5034080;28;20167;-70
2021/03/16 12:25:37;;;;;;;1.60;1.20;;;22.80;50.00;;;;;;5034153;28;20310;-70
2021/03/16 12:28:03;;;;;;;2.10;1.10;;;22.80;50.00;;;;;;5034370;28;20176;-70
2021/03/16 12:30:29;;;;;;;2.33;1.40;;;22.80;50.00;;;;;;5033802;28;20199;-70
2021/03/16 12:32:54;;;;;;;2.60;2.07;;;22.80;50.00;;;;;;5033975;28;20171;-69
2021/03/16 12:35:20;;;;;;;2.90;1.47;;;22.70;50.00;;;;;;5034113;28;20226;-70
2021/03/16 12:37:46;;;;;;;2.10;1.00;;;22.80;50.00;;;;;;5033797;28;20258;-70
2021/03/16 12:40:12;;;;;;;2.37;1.27;;;22.70;50.00;;;;;;5033775;28;20611;-70
2021/03/16 12:42:41;;;;;;;2.20;1.63;;;22.70;50.00;;;;;;5033873;28;20255;-70
2021/03/16 12:45:07;;;;;;;1.70;1.10;;;22.70;50.00;;;;;;5033695;28;20414;-70
2021/03/16 12:47:34;;;;;;;1.10;0.90;;;22.70;50.00;;;;;;5033722;28;20502;-70
2021/03/16 12:49:59;;;;;;;4.37;1.03;;;22.70;50.00;;;;;;5033515;28;20447;-69